Time,TemperatureF,DewpointF,PressureIn,WindDirection,WindDirectionDegrees,WindSpeedMPH,WindSpeedGustMPH,Humidity,HourlyPrecipIn,Conditions,Clouds,dailyrainin,SoftwareType,DateUTC
2013-07-02 00:01:00,72.0,67.0,29.92,NNW,343,0.0,1.0,83,0.00,,,0.00,,2013-07-02 05:01:00,
2013-07-02 00:11:00,71.0,66.0,29.92,NNW,337,0.0,3.0,83,0.00,,,0.00,,2013-07-02 05:11:00,
2013-07-02 00:22:00,71.0,66.0,29.92,NNW,337,0.0,3.0,83,0.00,,,0.00,,2013-07-02 05:22:00,
2013-07-02 00:32:00,71.0,66.0,29.92,NNW,340,1.0,4.0,84,0.00,,,0.00,,2013-07-02 05:32:00,
2013-07-02 00:43:00,70.0,65.0,29.91,NNW,340,0.0,2.0,84,0.00,,,0.00,,2013-07-02 05:43:00,
2013-07-02 00:53:00,70.0,65.0,29.91,NNW,340,0.0,2.0,84,0.00,,,0.00,,2013-07-02 05:53:00,
2013-07-02 01:01:00,70.0,65.0,29.92,NNW,342,1.0,4.0,83,0.00,,,0.00,,2013-07-02 06:01:00,
2013-07-02 01:12:00,70.0,65.0,29.92,NNW,341,2.0,4.0,83,0.00,,,0.00,,2013-07-02 06:12:00,
2013-07-02 01:23:00,70.0,65.0,29.92,NNW,341,2.0,4.0,83,0.00,,,0.00,,2013-07-02 06:23:00,
2013-07-02 01:34:00,70.0,65.0,29.91,NNW,340,0.0,3.0,85,0.00,,,0.00,,2013-07-02 06:34:00,
2013-07-02 01:43:00,70.0,65.0,29.91,North,350,1.0,4.0,84,0.00,,,0.00,,2013-07-02 06:43:00,
2013-07-02 01:53:00,70.0,65.0,29.91,North,350,1.0,4.0,84,0.00,,,0.00,,2013-07-02 06:53:00,
2013-07-02 02:01:00,69.0,64.0,29.91,North,350,0.0,2.0,85,0.00,,,0.00,,2013-07-02 07:01:00,
2013-07-02 02:12:00,69.0,65.0,29.91,North,350,0.0,2.0,86,0.00,,,0.00,,2013-07-02 07:12:00,
2013-07-02 02:22:00,69.0,65.0,29.91,North,350,0.0,2.0,86,0.00,,,0.00,,2013-07-02 07:22:00,
2013-07-02 02:34:00,69.0,65.0,29.91,North,350,0.0,1.0,87,0.00,,,0.00,,2013-07-02 07:34:00,
2013-07-02 02:44:00,68.0,64.0,29.91,North,350,0.0,0.0,88,0.00,,,0.00,,2013-07-02 07:44:00,
2013-07-02 02:53:00,68.0,64.0,29.91,North,350,0.0,0.0,88,0.00,,,0.00,,2013-07-02 07:53:00,
2013-07-02 03:02:00,68.0,65.0,29.91,North,350,0.0,3.0,89,0.00,,,0.00,,2013-07-02 08:02:00,
2013-07-02 03:22:00,68.0,65.0,29.91,NNW,348,0.0,4.0,89,0.00,,,0.00,,2013-07-02 08:22:00,
2013-07-02 03:33:00,68.0,65.0,29.91,North,350,1.0,4.0,89,0.00,,,0.00,,2013-07-02 08:33:00,
2013-07-02 03:44:00,68.0,65.0,29.92,North,5,0.0,3.0,89,0.00,,,0.00,,2013-07-02 08:44:00,
2013-07-02 03:53:00,68.0,65.0,29.92,North,5,0.0,3.0,89,0.00,,,0.00,,2013-07-02 08:53:00,
2013-07-02 04:02:00,67.0,64.0,29.92,North,5,0.0,1.0,89,0.00,,,0.00,,2013-07-02 09:02:00,
2013-07-02 04:11:00,66.0,63.0,29.93,North,5,0.0,0.0,90,0.00,,,0.00,,2013-07-02 09:11:00,
2013-07-02 04:23:00,66.0,63.0,29.93,North,5,0.0,0.0,90,0.00,,,0.00,,2013-07-02 09:23:00,
2013-07-02 04:33:00,65.0,63.0,29.93,North,360,0.0,2.0,92,0.00,,,0.00,,2013-07-02 09:33:00,
2013-07-02 04:43:00,65.0,63.0,29.94,WNW,303,0.0,2.0,92,0.00,,,0.00,,2013-07-02 09:43:00,
2013-07-02 04:52:00,65.0,63.0,29.94,WNW,303,0.0,2.0,92,0.00,,,0.00,,2013-07-02 09:52:00,
2013-07-02 05:01:00,65.0,63.0,29.94,WNW,303,0.0,0.0,93,0.00,,,0.00,,2013-07-02 10:01:00,
2013-07-02 05:22:00,65.0,63.0,29.94,WNW,303,0.0,0.0,92,0.00,,,0.00,,2013-07-02 10:22:00,
2013-07-02 05:33:00,65.0,63.0,29.95,WNW,303,0.0,0.0,93,0.00,,,0.00,,2013-07-02 10:33:00,
2013-07-02 05:44:00,64.0,62.0,29.95,WNW,303,0.0,1.0,93,0.00,,,0.00,,2013-07-02 10:44:00,
2013-07-02 05:52:00,64.0,62.0,29.95,WNW,303,0.0,1.0,93,0.00,,,0.00,,2013-07-02 10:52:00,
2013-07-02 06:01:00,65.0,63.0,29.96,NW,317,0.0,3.0,93,0.00,,,0.00,,2013-07-02 11:01:00,
2013-07-02 06:11:00,65.0,63.0,29.96,NNW,337,0.0,4.0,93,0.00,,,0.00,,2013-07-02 11:11:00,
2013-07-02 06:22:00,65.0,63.0,29.96,NNW,337,0.0,4.0,93,0.00,,,0.00,,2013-07-02 11:22:00,
2013-07-02 06:33:00,65.0,63.0,29.97,NNW,337,0.0,1.0,92,0.00,,,0.00,,2013-07-02 11:33:00,
2013-07-02 06:52:00,65.0,63.0,29.97,NNW,338,0.0,0.0,93,0.00,,,0.00,,2013-07-02 11:52:00,
2013-07-02 07:01:00,66.0,64.0,29.98,NW,323,1.0,3.0,93,0.00,,,0.00,,2013-07-02 12:01:00,
2013-07-02 07:11:00,65.0,63.0,29.98,NNW,331,0.0,0.0,93,0.00,,,0.00,,2013-07-02 12:11:00,
2013-07-02 07:23:00,65.0,63.0,29.98,NNW,331,0.0,0.0,93,0.00,,,0.00,,2013-07-02 12:23:00,
2013-07-02 07:33:00,67.0,65.0,29.98,North,360,2.0,4.0,92,0.00,,,0.00,,2013-07-02 12:33:00,
2013-07-02 07:43:00,68.0,65.0,29.98,NNW,345,1.0,4.0,90,0.00,,,0.00,,2013-07-02 12:43:00,
2013-07-02 07:52:00,68.0,65.0,29.98,NNW,345,1.0,4.0,90,0.00,,,0.00,,2013-07-02 12:52:00,
2013-07-02 08:01:00,70.0,67.0,29.98,North,9,0.0,3.0,89,0.00,,,0.00,,2013-07-02 13:01:00,
2013-07-02 08:11:00,71.0,67.0,29.98,North,5,1.0,4.0,87,0.00,,,0.00,,2013-07-02 13:11:00,
2013-07-02 08:34:00,72.0,67.0,29.98,North,360,0.0,3.0,85,0.00,,,0.00,,2013-07-02 13:34:00,
2013-07-02 08:52:00,73.0,68.0,29.98,NNE,15,1.0,4.0,83,0.00,,,0.00,,2013-07-02 13:52:00,
2013-07-02 09:02:00,74.0,68.0,29.99,NNE,28,1.0,5.0,81,0.00,,,0.00,,2013-07-02 14:02:00,
2013-07-02 09:11:00,74.0,67.0,29.99,NE,54,0.0,3.0,78,0.00,,,0.00,,2013-07-02 14:11:00,
2013-07-02 09:22:00,74.0,67.0,29.99,NE,54,0.0,3.0,78,0.00,,,0.00,,2013-07-02 14:22:00,
2013-07-02 09:33:00,76.0,67.0,29.99,NNE,26,2.0,5.0,75,0.00,,,0.00,,2013-07-02 14:33:00,
2013-07-02 09:43:00,76.0,66.0,29.99,NE,34,2.0,5.0,72,0.00,,,0.00,,2013-07-02 14:43:00,
2013-07-02 09:53:00,76.0,66.0,29.99,NE,34,2.0,5.0,72,0.00,,,0.00,,2013-07-02 14:53:00,
2013-07-02 10:02:00,77.0,66.0,29.99,NNE,28,2.0,5.0,68,0.00,,,0.00,,2013-07-02 15:02:00,
2013-07-02 10:22:00,78.0,66.0,29.99,ENE,68,0.0,4.0,67,0.00,,,0.00,,2013-07-02 15:22:00,
2013-07-02 10:33:00,78.0,62.0,29.99,ENE,62,2.0,5.0,58,0.00,,,0.00,,2013-07-02 15:33:00,
2013-07-02 10:44:00,79.0,65.0,29.99,NE,34,0.0,4.0,62,0.00,,,0.00,,2013-07-02 15:44:00,
2013-07-02 10:53:00,79.0,65.0,29.99,NE,34,0.0,4.0,62,0.00,,,0.00,,2013-07-02 15:53:00,
2013-07-02 11:01:00,79.0,63.0,29.99,ESE,107,0.0,5.0,59,0.00,,,0.00,,2013-07-02 16:01:00,
2013-07-02 11:12:00,80.0,64.0,29.99,ENE,59,2.0,4.0,58,0.00,,,0.00,,2013-07-02 16:12:00,
2013-07-02 11:22:00,80.0,64.0,29.99,ENE,59,2.0,4.0,58,0.00,,,0.00,,2013-07-02 16:22:00,
2013-07-02 11:33:00,80.0,63.0,30.00,NE,50,0.0,4.0,56,0.00,,,0.00,,2013-07-02 16:33:00,
2013-07-02 11:43:00,80.0,64.0,30.00,SSE,147,0.0,4.0,59,0.00,,,0.00,,2013-07-02 16:43:00,
2013-07-02 11:52:00,80.0,64.0,30.00,SSE,147,0.0,4.0,59,0.00,,,0.00,,2013-07-02 16:52:00,
2013-07-02 12:02:00,81.0,65.0,30.00,NNW,333,2.0,5.0,59,0.00,,,0.00,,2013-07-02 17:02:00,
2013-07-02 12:11:00,81.0,65.0,29.99,NNE,28,2.0,6.0,58,0.00,,,0.00,,2013-07-02 17:11:00,
2013-07-02 12:22:00,81.0,65.0,29.99,NNE,28,2.0,6.0,58,0.00,,,0.00,,2013-07-02 17:22:00,
2013-07-02 12:33:00,82.0,66.0,29.99,NNE,13,1.0,5.0,58,0.00,,,0.00,,2013-07-02 17:33:00,
2013-07-02 12:43:00,82.0,67.0,29.99,WNW,288,0.0,5.0,60,0.00,,,0.00,,2013-07-02 17:43:00,
2013-07-02 12:53:00,82.0,67.0,29.99,WNW,288,0.0,5.0,60,0.00,,,0.00,,2013-07-02 17:53:00,
2013-07-02 13:02:00,82.0,65.0,29.99,North,360,2.0,9.0,57,0.00,,,0.00,,2013-07-02 18:02:00,
2013-07-02 13:12:00,82.0,64.0,29.99,East,93,2.0,8.0,55,0.00,,,0.00,,2013-07-02 18:12:00,
2013-07-02 13:23:00,82.0,64.0,29.99,East,93,2.0,8.0,55,0.00,,,0.00,,2013-07-02 18:23:00,
2013-07-02 13:34:00,83.0,65.0,29.98,NNE,12,2.0,4.0,55,0.00,,,0.00,,2013-07-02 18:34:00,
2013-07-02 13:43:00,83.0,66.0,29.98,WNW,295,2.0,6.0,56,0.00,,,0.00,,2013-07-02 18:43:00,
2013-07-02 13:53:00,83.0,66.0,29.98,WNW,295,2.0,6.0,56,0.00,,,0.00,,2013-07-02 18:53:00,
2013-07-02 14:01:00,83.0,65.0,29.98,NNW,343,4.0,7.0,54,0.00,,,0.00,,2013-07-02 19:01:00,
2013-07-02 14:12:00,82.0,63.0,29.98,NE,46,1.0,2.0,52,0.00,,,0.00,,2013-07-02 19:12:00,
2013-07-02 14:22:00,82.0,63.0,29.98,NE,46,1.0,2.0,52,0.00,,,0.00,,2013-07-02 19:22:00,
2013-07-02 14:34:00,83.0,65.0,29.98,NE,45,1.0,3.0,54,0.00,,,0.00,,2013-07-02 19:34:00,
2013-07-02 14:43:00,83.0,63.0,29.98,NW,306,1.0,3.0,51,0.00,,,0.00,,2013-07-02 19:43:00,
2013-07-02 14:53:00,83.0,63.0,29.98,NW,306,1.0,3.0,51,0.00,,,0.00,,2013-07-02 19:53:00,
2013-07-02 15:02:00,84.0,66.0,29.97,North,9,1.0,4.0,54,0.00,,,0.00,,2013-07-02 20:02:00,
2013-07-02 15:11:00,84.0,64.0,29.97,NNW,339,2.0,6.0,51,0.00,,,0.00,,2013-07-02 20:11:00,
2013-07-02 15:22:00,84.0,64.0,29.97,NNW,339,2.0,6.0,51,0.00,,,0.00,,2013-07-02 20:22:00,
2013-07-02 15:33:00,85.0,63.0,29.96,North,11,1.0,3.0,48,0.00,,,0.00,,2013-07-02 20:33:00,
2013-07-02 15:43:00,83.0,65.0,29.96,NW,326,1.0,6.0,54,0.00,,,0.00,,2013-07-02 20:43:00,
2013-07-02 15:52:00,83.0,65.0,29.96,NW,326,1.0,6.0,54,0.00,,,0.00,,2013-07-02 20:52:00,
2013-07-02 16:02:00,84.0,65.0,29.96,West,271,4.0,7.0,53,0.00,,,0.00,,2013-07-02 21:02:00,
2013-07-02 16:11:00,84.0,65.0,29.96,North,10,2.0,7.0,53,0.00,,,0.00,,2013-07-02 21:11:00,
2013-07-02 16:22:00,84.0,65.0,29.96,North,10,2.0,7.0,53,0.00,,,0.00,,2013-07-02 21:22:00,
2013-07-02 16:33:00,84.0,64.0,29.96,NE,34,2.0,6.0,51,0.00,,,0.00,,2013-07-02 21:33:00,
2013-07-02 16:44:00,85.0,62.0,29.95,NNW,327,3.0,5.0,47,0.00,,,0.00,,2013-07-02 21:44:00,
2013-07-02 16:52:00,85.0,62.0,29.95,NNW,327,3.0,5.0,47,0.00,,,0.00,,2013-07-02 21:52:00,
2013-07-02 17:01:00,84.0,65.0,29.95,North,360,3.0,7.0,53,0.00,,,0.00,,2013-07-02 22:01:00,
2013-07-02 17:11:00,85.0,64.0,29.95,NNW,342,2.0,7.0,50,0.00,,,0.00,,2013-07-02 22:11:00,
2013-07-02 17:22:00,85.0,64.0,29.95,NNW,342,2.0,7.0,50,0.00,,,0.00,,2013-07-02 22:22:00,
2013-07-02 17:34:00,82.0,62.0,29.95,NNE,22,0.0,3.0,51,0.00,,,0.00,,2013-07-02 22:34:00,
2013-07-02 17:43:00,84.0,65.0,29.95,NE,50,2.0,6.0,53,0.00,,,0.00,,2013-07-02 22:43:00,
2013-07-02 17:53:00,84.0,65.0,29.95,NE,50,2.0,6.0,53,0.00,,,0.00,,2013-07-02 22:53:00,
2013-07-02 18:01:00,83.0,65.0,29.95,NNE,30,2.0,5.0,54,0.00,,,0.00,,2013-07-02 23:01:00,
2013-07-02 18:11:00,81.0,65.0,29.95,NE,50,2.0,5.0,59,0.00,,,0.00,,2013-07-02 23:11:00,
2013-07-02 18:22:00,81.0,65.0,29.95,NE,50,2.0,5.0,59,0.00,,,0.00,,2013-07-02 23:22:00,
2013-07-02 18:33:00,81.0,66.0,29.95,NE,51,0.0,3.0,61,0.00,,,0.00,,2013-07-02 23:33:00,
2013-07-02 18:44:00,81.0,67.0,29.95,ENE,60,0.0,3.0,62,0.00,,,0.00,,2013-07-02 23:44:00,
2013-07-02 18:52:00,81.0,67.0,29.95,ENE,60,0.0,3.0,62,0.00,,,0.00,,2013-07-02 23:52:00,
2013-07-02 19:01:00,82.0,66.0,29.96,ENE,69,2.0,5.0,59,0.00,,,0.00,,2013-07-03 00:01:00,
2013-07-02 19:11:00,81.0,65.0,29.96,ENE,59,2.0,5.0,59,0.00,,,0.00,,2013-07-03 00:11:00,
2013-07-02 19:22:00,81.0,65.0,29.96,ENE,59,2.0,5.0,59,0.00,,,0.00,,2013-07-03 00:22:00,
2013-07-02 19:33:00,80.0,67.0,29.96,NE,42,1.0,4.0,64,0.00,,,0.00,,2013-07-03 00:33:00,
2013-07-02 19:44:00,80.0,67.0,29.96,NE,42,1.0,4.0,64,0.00,,,0.00,,2013-07-03 00:44:00,
2013-07-02 19:52:00,79.0,67.0,29.96,NE,42,0.0,3.0,66,0.00,,,0.00,,2013-07-03 00:52:00,
2013-07-02 20:01:00,78.0,67.0,29.97,NE,42,0.0,1.0,69,0.00,,,0.00,,2013-07-03 01:01:00,
2013-07-02 20:11:00,78.0,67.0,29.97,NE,42,0.0,1.0,69,0.00,,,0.00,,2013-07-03 01:11:00,
2013-07-02 20:22:00,77.0,68.0,29.97,NE,42,0.0,0.0,73,0.00,,,0.00,,2013-07-03 01:22:00,
2013-07-02 20:33:00,77.0,68.0,29.97,NE,42,0.0,0.0,73,0.00,,,0.00,,2013-07-03 01:33:00,
2013-07-02 20:42:00,76.0,67.0,29.97,NE,42,0.0,0.0,74,0.00,,,0.00,,2013-07-03 01:42:00,
2013-07-02 20:59:00,76.0,67.0,29.97,NE,42,0.0,0.0,74,0.00,,,0.00,,2013-07-03 01:59:00,
2013-07-02 21:04:00,75.0,67.0,29.97,NE,42,0.0,1.0,75,0.00,,,0.00,,2013-07-03 02:04:00,
2013-07-02 21:14:00,75.0,67.0,29.97,NE,42,0.0,1.0,75,0.00,,,0.00,,2013-07-03 02:14:00,
2013-07-02 21:27:00,75.0,67.0,29.97,NE,42,0.0,1.0,75,0.00,,,0.00,,2013-07-03 02:27:00,
2013-07-02 21:39:00,73.0,68.0,29.98,NE,42,0.0,0.0,83,0.00,,,0.00,,2013-07-03 02:39:00,
2013-07-02 21:44:00,72.0,67.0,29.99,NE,42,0.0,1.0,83,0.00,,,0.00,,2013-07-03 02:44:00,
2013-07-02 21:59:00,72.0,67.0,29.99,NE,42,0.0,1.0,83,0.00,,,0.00,,2013-07-03 02:59:00,
2013-07-02 22:04:00,72.0,67.0,29.99,NE,42,0.0,0.0,84,0.00,,,0.00,,2013-07-03 03:04:00,
2013-07-02 22:13:00,72.0,67.0,29.99,NE,42,0.0,0.0,83,0.00,,,0.00,,2013-07-03 03:13:00,
2013-07-02 22:25:00,72.0,67.0,29.99,NE,42,0.0,0.0,83,0.00,,,0.00,,2013-07-03 03:25:00,
2013-07-02 22:35:00,70.0,66.0,29.99,NE,42,0.0,0.0,87,0.00,,,0.00,,2013-07-03 03:35:00,
2013-07-02 22:56:00,70.0,66.0,29.99,NE,42,0.0,0.0,86,0.00,,,0.00,,2013-07-03 03:56:00,
2013-07-02 23:01:00,69.0,65.0,29.99,NE,42,0.0,0.0,88,0.00,,,0.00,,2013-07-03 04:01:00,
2013-07-02 23:11:00,69.0,65.0,30.00,NE,42,0.0,0.0,88,0.00,,,0.00,,2013-07-03 04:11:00,
2013-07-02 23:22:00,69.0,65.0,30.00,NE,42,0.0,0.0,88,0.00,,,0.00,,2013-07-03 04:22:00,
2013-07-02 23:33:00,69.0,65.0,30.00,NE,42,0.0,0.0,88,0.00,,,0.00,,2013-07-03 04:33:00,
2013-07-02 23:43:00,68.0,65.0,30.00,NE,42,0.0,0.0,90,0.00,,,0.00,,2013-07-03 04:43:00,
2013-07-02 23:52:00,68.0,65.0,30.00,NE,42,0.0,0.0,90,0.00,,,0.00,,2013-07-03 04:52:00,